createdAt,value
2022-12-14T00:00:49.193Z,0.00
2022-12-14T00:01:49.690Z,0.00
2022-12-14T00:02:49.235Z,0.00
2022-12-14T00:03:49.180Z,0.00
2022-12-14T00:04:49.129Z,0.00
2022-12-14T00:05:49.087Z,0.00
2022-12-14T00:06:49.088Z,0.00
2022-12-14T00:07:49.079Z,0.00
2022-12-14T00:08:49.068Z,0.00
2022-12-14T00:09:49.061Z,0.00
2022-12-14T00:10:49.063Z,0.00
2022-12-14T00:11:49.035Z,0.00
2022-12-14T00:12:49.014Z,0.00
2022-12-14T00:13:49.191Z,0.00
2022-12-14T00:14:49.032Z,0.00
2022-12-14T00:15:49.011Z,0.00
2022-12-14T00:16:48.971Z,0.00
2022-12-14T00:17:48.971Z,0.00
2022-12-14T00:18:48.957Z,0.00
2022-12-14T00:19:49.009Z,0.00
2022-12-14T00:20:48.950Z,0.00
2022-12-14T00:21:48.939Z,0.00
2022-12-14T00:22:48.911Z,0.00
2022-12-14T00:23:48.909Z,0.00
2022-12-14T00:24:48.927Z,0.00
2022-12-14T00:25:49.157Z,0.00
2022-12-14T00:26:48.867Z,0.00
2022-12-14T00:27:48.854Z,0.00
2022-12-14T00:28:48.855Z,0.00
2022-12-14T00:29:48.920Z,0.00
2022-12-14T00:30:51.794Z,0.00
2022-12-14T00:31:49.848Z,0.00
2022-12-14T00:32:48.820Z,0.00
2022-12-14T00:33:48.810Z,0.00
2022-12-14T00:34:48.794Z,0.00
2022-12-14T00:35:48.782Z,0.00
2022-12-14T00:36:48.774Z,0.00
2022-12-14T00:37:49.047Z,0.00
2022-12-14T00:38:48.748Z,0.00
2022-12-14T00:39:48.763Z,0.00
2022-12-14T00:40:48.725Z,0.00
2022-12-14T00:41:48.713Z,0.00
2022-12-14T00:42:48.713Z,0.00
2022-12-14T00:43:49.436Z,0.00
2022-12-14T00:44:48.684Z,0.00
2022-12-14T00:45:48.720Z,0.00
2022-12-14T00:46:48.757Z,0.00
2022-12-14T00:47:48.651Z,0.00
2022-12-14T00:48:48.638Z,0.00
2022-12-14T00:49:48.799Z,0.00
2022-12-14T00:50:49.001Z,0.00
2022-12-14T00:51:48.610Z,0.00
2022-12-14T00:52:48.598Z,0.00
2022-12-14T00:53:48.597Z,0.00
2022-12-14T00:54:48.583Z,0.00
2022-12-14T00:55:49.299Z,0.00
2022-12-14T00:56:48.564Z,0.00
2022-12-14T00:57:48.546Z,0.00
2022-12-14T00:58:48.548Z,0.00
2022-12-14T00:59:48.568Z,0.00
2022-12-14T01:00:48.518Z,0.00
2022-12-14T01:01:49.027Z,0.00
2022-12-14T01:02:48.581Z,0.00
2022-12-14T01:03:48.563Z,0.00
2022-12-14T01:04:48.480Z,0.00
2022-12-14T01:05:49.271Z,0.00
2022-12-14T01:06:48.448Z,0.00
2022-12-14T01:07:48.809Z,0.00
2022-12-14T01:08:48.431Z,0.00
2022-12-14T01:09:48.434Z,0.00
2022-12-14T01:10:48.409Z,0.00
2022-12-14T01:11:48.419Z,0.00
2022-12-14T01:12:48.397Z,0.00
2022-12-14T01:13:49.731Z,0.00
2022-12-14T01:14:48.382Z,0.00
2022-12-14T01:15:48.453Z,0.00
2022-12-14T01:16:48.360Z,0.00
2022-12-14T01:17:48.344Z,0.00
2022-12-14T01:18:48.356Z,0.00
2022-12-14T01:19:49.295Z,0.00
2022-12-14T01:20:48.344Z,0.00
2022-12-14T01:21:48.294Z,0.00
2022-12-14T01:22:48.288Z,0.00
2022-12-14T01:23:48.294Z,0.00
2022-12-14T01:24:48.285Z,0.00
2022-12-14T01:25:48.932Z,0.00
2022-12-14T01:26:48.252Z,0.00
2022-12-14T01:27:48.233Z,0.00
2022-12-14T01:28:48.224Z,0.00
2022-12-14T01:29:48.222Z,0.00
2022-12-14T01:30:48.259Z,0.00
2022-12-14T01:31:48.543Z,0.00
2022-12-14T01:32:48.199Z,0.00
2022-12-14T01:33:48.176Z,0.00
2022-12-14T01:34:48.223Z,0.00
2022-12-14T01:35:48.148Z,0.00
2022-12-14T01:36:48.140Z,0.00
2022-12-14T01:37:48.999Z,0.00
2022-12-14T01:38:48.161Z,0.00
2022-12-14T01:39:48.113Z,0.00
2022-12-14T01:40:48.113Z,0.00
2022-12-14T01:41:48.096Z,0.00
2022-12-14T01:42:48.087Z,0.00
2022-12-14T01:43:48.964Z,0.00
2022-12-14T01:44:48.065Z,0.00
2022-12-14T01:45:48.061Z,0.00
2022-12-14T01:46:48.140Z,0.00
2022-12-14T01:47:48.025Z,0.00
2022-12-14T01:48:48.016Z,0.00
2022-12-14T01:49:48.002Z,0.00
2022-12-14T01:50:48.027Z,0.00
2022-12-14T01:51:47.991Z,0.00
2022-12-14T01:52:47.993Z,0.00
2022-12-14T01:53:47.997Z,0.00
2022-12-14T01:54:48.850Z,0.00
2022-12-14T01:55:49.120Z,0.00
2022-12-14T01:56:47.944Z,0.00
2022-12-14T01:57:47.944Z,0.00
2022-12-14T01:58:47.912Z,0.00
2022-12-14T01:59:47.910Z,0.00
2022-12-14T02:00:47.888Z,0.00
2022-12-14T02:01:48.286Z,0.00
2022-12-14T02:02:48.057Z,0.00
2022-12-14T02:03:47.993Z,0.00
2022-12-14T02:04:47.848Z,0.00
2022-12-14T02:05:47.866Z,0.00
2022-12-14T02:06:47.854Z,0.00
2022-12-14T02:07:48.940Z,0.00
2022-12-14T02:08:47.819Z,0.00
2022-12-14T02:09:47.804Z,0.00
2022-12-14T02:10:47.793Z,0.00
2022-12-14T02:11:47.774Z,0.00
2022-12-14T02:12:47.765Z,0.00
2022-12-14T02:13:48.976Z,0.00
2022-12-14T02:14:47.753Z,0.00
2022-12-14T02:15:47.766Z,0.00
2022-12-14T02:16:47.732Z,0.00
2022-12-14T02:17:47.721Z,0.00
2022-12-14T02:18:47.724Z,0.00
2022-12-14T02:19:47.726Z,0.00
2022-12-14T02:20:47.681Z,0.00
2022-12-14T02:21:47.679Z,0.00
2022-12-14T02:22:47.681Z,0.00
2022-12-14T02:23:47.657Z,0.00
2022-12-14T02:24:47.642Z,0.00
2022-12-14T02:25:49.463Z,0.00
2022-12-14T02:26:47.620Z,0.00
2022-12-14T02:27:47.620Z,0.00
2022-12-14T02:28:47.633Z,0.00
2022-12-14T02:29:47.641Z,0.00
2022-12-14T02:30:47.576Z,0.00
2022-12-14T02:31:48.947Z,0.00
2022-12-14T02:32:47.558Z,0.00
2022-12-14T02:33:47.546Z,0.00
2022-12-14T02:34:47.554Z,0.00
2022-12-14T02:35:47.527Z,0.00
2022-12-14T02:36:47.530Z,0.00
2022-12-14T02:37:49.228Z,0.00
2022-12-14T02:38:47.528Z,0.00
2022-12-14T02:39:47.497Z,0.00
2022-12-14T02:40:47.484Z,0.00
2022-12-14T02:41:47.476Z,0.00
2022-12-14T02:42:47.450Z,0.00
2022-12-14T02:43:47.536Z,0.00
2022-12-14T02:44:47.438Z,0.00
2022-12-14T02:45:47.422Z,0.00
2022-12-14T02:46:50.357Z,0.00
2022-12-14T02:47:47.400Z,0.00
2022-12-14T02:48:47.396Z,0.00
2022-12-14T02:49:49.252Z,0.00
2022-12-14T02:50:47.374Z,0.00
2022-12-14T02:51:47.389Z,0.00
2022-12-14T02:52:47.393Z,0.00
2022-12-14T02:53:47.348Z,0.00
2022-12-14T02:54:47.355Z,0.00
2022-12-14T02:55:47.317Z,0.00
2022-12-14T02:56:47.314Z,0.00
2022-12-14T02:57:47.304Z,0.00
2022-12-14T02:58:47.308Z,0.00
2022-12-14T02:59:47.274Z,0.00
2022-12-14T03:00:47.295Z,0.00
2022-12-14T03:01:47.555Z,0.00
2022-12-14T03:02:47.341Z,0.00
2022-12-14T03:03:47.252Z,0.00
2022-12-14T03:04:47.229Z,0.00
2022-12-14T03:05:47.227Z,0.00
2022-12-14T03:06:47.209Z,0.00
2022-12-14T03:07:48.912Z,0.00
2022-12-14T03:08:47.196Z,0.00
2022-12-14T03:09:47.175Z,0.00
2022-12-14T03:10:47.183Z,0.00
2022-12-14T03:11:47.152Z,0.00
2022-12-14T03:12:47.145Z,0.00
2022-12-14T03:13:47.150Z,0.00
2022-12-14T03:14:47.128Z,0.00
2022-12-14T03:15:47.111Z,0.00
2022-12-14T03:16:47.110Z,0.00
2022-12-14T03:17:49.055Z,0.00
2022-12-14T03:18:47.103Z,0.00
2022-12-14T03:19:47.088Z,0.00
2022-12-14T03:20:47.080Z,0.00
2022-12-14T03:21:47.052Z,0.00
2022-12-14T03:22:47.034Z,0.00
2022-12-14T03:23:47.026Z,0.00
2022-12-14T03:24:47.027Z,0.00
2022-12-14T03:25:47.024Z,0.00
2022-12-14T03:26:47.720Z,0.00
2022-12-14T03:27:47.006Z,0.00
2022-12-14T03:28:46.988Z,0.00
2022-12-14T03:29:46.974Z,0.00
2022-12-14T03:31:00.976Z,0.00
2022-12-14T03:31:48.994Z,0.00
2022-12-14T03:32:46.933Z,0.00
2022-12-14T03:33:46.930Z,0.00
2022-12-14T03:34:46.922Z,0.00
2022-12-14T03:35:46.915Z,0.00
2022-12-14T03:36:47.348Z,0.00
2022-12-14T03:37:52.810Z,0.00
2022-12-14T03:38:47.875Z,0.00
2022-12-14T03:39:46.861Z,0.00
2022-12-14T03:40:46.852Z,0.00
2022-12-14T03:41:49.060Z,0.00
2022-12-14T03:42:49.405Z,0.00
2022-12-14T03:43:49.891Z,0.00
2022-12-14T03:44:49.466Z,0.00
2022-12-14T03:45:46.862Z,0.00
2022-12-14T03:46:46.799Z,0.00
2022-12-14T03:47:46.797Z,0.00
2022-12-14T03:48:46.767Z,0.00
2022-12-14T03:49:46.758Z,0.00
2022-12-14T03:50:46.748Z,0.00
2022-12-14T03:51:46.746Z,0.00
2022-12-14T03:52:46.753Z,0.00
2022-12-14T03:53:46.725Z,0.00
2022-12-14T03:54:46.716Z,0.00
2022-12-14T03:55:46.700Z,0.00
2022-12-14T03:56:52.622Z,0.00
2022-12-14T03:57:47.692Z,0.00
2022-12-14T03:58:47.246Z,0.00
2022-12-14T03:59:46.661Z,0.00
2022-12-14T04:00:46.723Z,0.00
2022-12-14T04:01:46.857Z,0.00
2022-12-14T04:02:46.809Z,0.00
2022-12-14T04:03:46.626Z,0.00
2022-12-14T04:04:46.625Z,0.00
2022-12-14T04:05:49.077Z,0.00
2022-12-14T04:06:46.593Z,0.00
2022-12-14T04:07:46.570Z,0.00
2022-12-14T04:08:46.578Z,0.00
2022-12-14T04:09:46.557Z,0.00
2022-12-14T04:10:46.556Z,0.00
2022-12-14T04:11:46.527Z,0.00
2022-12-14T04:12:51.054Z,0.00
2022-12-14T04:13:49.033Z,0.00
2022-12-14T04:14:46.529Z,0.00
2022-12-14T04:15:46.503Z,0.00
2022-12-14T04:16:46.527Z,0.00
2022-12-14T04:17:46.474Z,0.00
2022-12-14T04:18:46.457Z,0.00
2022-12-14T04:19:49.306Z,0.00
2022-12-14T04:20:46.436Z,0.00
2022-12-14T04:21:46.438Z,0.00
2022-12-14T04:22:46.417Z,0.00
2022-12-14T04:23:46.415Z,0.00
2022-12-14T04:24:46.405Z,0.00
2022-12-14T04:25:46.386Z,0.00
2022-12-14T04:26:46.380Z,0.00
2022-12-14T04:27:46.384Z,0.00
2022-12-14T04:28:46.367Z,0.00
2022-12-14T04:29:47.524Z,0.00
2022-12-14T04:30:46.385Z,0.00
2022-12-14T04:31:46.407Z,0.00
2022-12-14T04:32:46.421Z,0.00
2022-12-14T04:33:46.310Z,0.00
2022-12-14T04:34:46.296Z,0.00
2022-12-14T04:35:46.327Z,0.00
2022-12-14T04:36:46.281Z,0.00
2022-12-14T04:37:46.269Z,0.00
2022-12-14T04:38:46.257Z,0.00
2022-12-14T04:39:46.238Z,0.00
2022-12-14T04:40:46.238Z,0.00
2022-12-14T04:41:46.231Z,0.00
2022-12-14T04:42:46.218Z,0.00
2022-12-14T04:43:46.205Z,0.00
2022-12-14T04:44:46.187Z,0.00
2022-12-14T04:45:46.222Z,0.00
2022-12-14T04:46:46.207Z,0.00
2022-12-14T04:47:46.166Z,0.00
2022-12-14T04:48:46.153Z,0.00
2022-12-14T04:49:46.135Z,0.00
2022-12-14T04:50:46.131Z,0.00
2022-12-14T04:51:46.133Z,0.00
2022-12-14T04:52:46.110Z,0.00
2022-12-14T04:53:46.105Z,0.00
2022-12-14T04:54:46.089Z,0.00
2022-12-14T04:55:46.077Z,0.00
2022-12-14T04:56:46.077Z,0.00
2022-12-14T04:57:46.058Z,0.00
2022-12-14T04:58:46.039Z,0.00
2022-12-14T04:59:46.035Z,0.00
2022-12-14T05:00:46.119Z,0.00
2022-12-14T05:01:49.110Z,0.00
2022-12-14T05:02:46.123Z,0.00
2022-12-14T05:03:46.007Z,0.00
2022-12-14T05:04:45.987Z,0.00
2022-12-14T05:05:45.969Z,0.00
2022-12-14T05:06:45.963Z,0.00
2022-12-14T05:07:45.947Z,0.00
2022-12-14T05:08:45.941Z,0.00
2022-12-14T05:09:45.974Z,0.00
2022-12-14T05:10:45.928Z,0.00
2022-12-14T05:11:54.600Z,0.00
2022-12-14T05:12:46.909Z,0.00
2022-12-14T05:13:45.894Z,0.00
2022-12-14T05:14:45.872Z,0.00
2022-12-14T05:15:45.874Z,0.00
2022-12-14T05:16:48.956Z,0.00
2022-12-14T05:17:45.864Z,0.00
2022-12-14T05:18:45.860Z,0.00
2022-12-14T05:19:48.896Z,0.00
2022-12-14T05:20:45.816Z,0.00
2022-12-14T05:21:45.824Z,0.00
2022-12-14T05:22:45.794Z,0.00
2022-12-14T05:23:45.780Z,0.00
2022-12-14T05:24:45.783Z,0.00
2022-12-14T05:25:45.767Z,0.00
2022-12-14T05:26:45.763Z,0.00
2022-12-14T05:27:45.754Z,0.00
2022-12-14T05:28:50.261Z,0.00
2022-12-14T05:29:45.727Z,0.00
2022-12-14T05:30:48.768Z,0.00
2022-12-14T05:31:49.627Z,0.00
2022-12-14T05:32:45.708Z,0.00
2022-12-14T05:33:45.685Z,0.00
2022-12-14T05:34:45.696Z,0.00
2022-12-14T05:35:45.655Z,0.00
2022-12-14T05:36:45.665Z,0.00
2022-12-14T05:37:45.638Z,0.00
2022-12-14T05:38:45.622Z,0.00
2022-12-14T05:39:45.617Z,0.00
2022-12-14T05:40:45.608Z,0.00
2022-12-14T05:41:45.609Z,0.00
2022-12-14T05:42:48.765Z,0.00
2022-12-14T05:43:46.574Z,0.00
2022-12-14T05:44:45.591Z,0.00
2022-12-14T05:45:45.633Z,0.00
2022-12-14T05:46:45.554Z,0.00
2022-12-14T05:47:45.572Z,0.00
2022-12-14T05:48:49.145Z,0.00
2022-12-14T05:49:45.518Z,0.00
2022-12-14T05:50:45.519Z,0.00
2022-12-14T05:51:45.489Z,0.00
2022-12-14T05:52:45.511Z,0.00
2022-12-14T05:53:45.473Z,0.00
2022-12-14T05:54:45.456Z,0.00
2022-12-14T05:55:45.446Z,0.00
2022-12-14T05:56:45.435Z,0.00
2022-12-14T05:57:45.435Z,0.00
2022-12-14T05:58:45.456Z,0.00
2022-12-14T05:59:45.412Z,0.00
2022-12-14T06:00:45.393Z,0.00
2022-12-14T06:01:45.453Z,0.00
2022-12-14T06:02:45.450Z,0.00
2022-12-14T06:03:45.430Z,0.00
2022-12-14T06:04:45.422Z,0.00
2022-12-14T06:05:45.343Z,0.00
2022-12-14T06:06:45.356Z,0.00
2022-12-14T06:07:45.322Z,0.00
2022-12-14T06:08:45.342Z,0.00
2022-12-14T06:09:45.301Z,0.00
2022-12-14T06:10:45.286Z,0.00
2022-12-14T06:11:45.282Z,0.00
2022-12-14T06:12:45.291Z,0.00
2022-12-14T06:13:45.277Z,0.00
2022-12-14T06:14:45.263Z,0.00
2022-12-14T06:15:45.302Z,0.00
2022-12-14T06:16:45.233Z,0.00
2022-12-14T06:17:45.226Z,0.00
2022-12-14T06:18:45.232Z,0.00
2022-12-14T06:19:49.798Z,0.00
2022-12-14T06:20:46.191Z,0.00
2022-12-14T06:21:45.176Z,0.00
2022-12-14T06:22:47.741Z,0.00
2022-12-14T06:23:45.152Z,0.00
2022-12-14T06:24:45.167Z,0.00
2022-12-14T06:25:45.143Z,0.00
2022-12-14T06:26:45.131Z,0.00
2022-12-14T06:27:45.125Z,0.00
2022-12-14T06:28:45.112Z,0.00
2022-12-14T06:29:45.114Z,0.00
2022-12-14T06:30:45.125Z,0.00
2022-12-14T06:31:45.086Z,0.00
2022-12-14T06:32:45.076Z,0.00
2022-12-14T06:33:45.060Z,0.00
2022-12-14T06:34:45.042Z,0.00
2022-12-14T06:35:45.025Z,0.00
2022-12-14T06:36:45.051Z,0.00
2022-12-14T06:37:45.015Z,0.00
2022-12-14T06:38:45.030Z,0.00
2022-12-14T06:39:46.474Z,0.00
2022-12-14T06:40:45.974Z,0.00
2022-12-14T06:41:44.992Z,0.00
2022-12-14T06:42:44.965Z,0.00
2022-12-14T06:43:44.949Z,0.00
2022-12-14T06:44:44.934Z,0.00
2022-12-14T06:45:44.931Z,0.00
2022-12-14T06:46:45.119Z,0.00
2022-12-14T06:47:44.906Z,0.00
2022-12-14T06:48:44.909Z,0.00
2022-12-14T06:49:44.887Z,0.00
2022-12-14T06:50:44.877Z,0.00
2022-12-14T06:51:44.867Z,0.00
2022-12-14T06:52:44.874Z,0.00
2022-12-14T06:53:44.865Z,0.00
2022-12-14T06:54:44.855Z,0.00
2022-12-14T06:55:44.825Z,0.00
2022-12-14T06:56:44.808Z,0.00
2022-12-14T06:57:44.814Z,0.00
2022-12-14T06:58:44.790Z,0.00
2022-12-14T06:59:44.791Z,0.00
2022-12-14T07:00:44.762Z,0.00
2022-12-14T07:01:44.898Z,0.00
2022-12-14T07:02:44.957Z,0.00
2022-12-14T07:03:44.788Z,0.00
2022-12-14T07:04:44.743Z,0.00
2022-12-14T07:05:48.966Z,0.00
2022-12-14T07:06:44.701Z,0.00
2022-12-14T07:07:44.700Z,0.00
2022-12-14T07:08:44.693Z,0.00
2022-12-14T07:09:44.689Z,0.00
2022-12-14T07:10:44.704Z,0.00
2022-12-14T07:11:44.658Z,0.00
2022-12-14T07:12:44.655Z,5.62
2022-12-14T07:13:44.651Z,5.62
2022-12-14T07:14:44.646Z,5.62
2022-12-14T07:15:44.663Z,5.62
2022-12-14T07:16:48.241Z,5.62
2022-12-14T07:17:44.590Z,5.62
2022-12-14T07:18:44.593Z,5.62
2022-12-14T07:19:44.651Z,5.62
2022-12-14T07:20:44.558Z,5.62
2022-12-14T07:21:44.554Z,5.62
2022-12-14T07:22:44.534Z,5.62
2022-12-14T07:23:44.525Z,5.62
2022-12-14T07:24:44.510Z,5.62
2022-12-14T07:25:44.522Z,5.62
2022-12-14T07:26:44.537Z,11.25
2022-12-14T07:27:44.545Z,11.25
2022-12-14T07:28:44.486Z,11.25
2022-12-14T07:29:44.470Z,11.25
2022-12-14T07:30:44.525Z,11.25
2022-12-14T07:31:44.474Z,11.25
2022-12-14T07:32:45.458Z,11.25
2022-12-14T07:33:44.435Z,11.25
2022-12-14T07:34:44.410Z,11.25
2022-12-14T07:35:44.425Z,11.25
2022-12-14T07:36:44.400Z,16.88
2022-12-14T07:37:49.113Z,16.88
2022-12-14T07:38:45.378Z,16.88
2022-12-14T07:39:44.364Z,16.88
2022-12-14T07:40:44.377Z,16.88
2022-12-14T07:41:44.336Z,16.88
2022-12-14T07:42:44.344Z,16.88
2022-12-14T07:43:44.325Z,16.88
2022-12-14T07:44:45.314Z,16.88
2022-12-14T07:45:44.299Z,22.50
2022-12-14T07:46:44.467Z,22.50
2022-12-14T07:47:44.284Z,22.50
2022-12-14T07:48:44.272Z,22.50
2022-12-14T07:49:44.267Z,28.12
2022-12-14T07:50:44.250Z,28.12
2022-12-14T07:51:44.337Z,28.12
2022-12-14T07:52:44.222Z,28.12
2022-12-14T07:53:44.219Z,28.12
2022-12-14T07:54:44.205Z,28.12
2022-12-14T07:55:44.212Z,28.12
2022-12-14T07:56:44.179Z,33.75
2022-12-14T07:57:44.174Z,33.75
2022-12-14T07:58:44.175Z,33.75
2022-12-14T07:59:44.193Z,39.38
2022-12-14T08:00:44.154Z,45.00
2022-12-14T08:01:44.462Z,33.75
2022-12-14T08:02:44.149Z,39.38
2022-12-14T08:03:44.116Z,45.00
2022-12-14T08:04:44.164Z,45.00
2022-12-14T08:05:44.109Z,45.00
2022-12-14T08:06:44.085Z,45.00
2022-12-14T08:07:44.073Z,45.00
2022-12-14T08:08:44.053Z,45.00
2022-12-14T08:09:44.045Z,45.00
2022-12-14T08:10:44.050Z,67.50
2022-12-14T08:11:44.024Z,90.00
2022-12-14T08:12:44.026Z,101.25
2022-12-14T08:13:44.002Z,185.62
2022-12-14T08:14:44.014Z,146.25
2022-12-14T08:15:44.041Z,174.38
2022-12-14T08:16:43.996Z,106.88
2022-12-14T08:17:43.968Z,180.00
2022-12-14T08:18:43.956Z,191.25
2022-12-14T08:19:43.950Z,151.88
2022-12-14T08:20:48.595Z,123.75
2022-12-14T08:21:43.952Z,106.88
2022-12-14T08:22:43.908Z,95.62
2022-12-14T08:23:43.901Z,129.38
2022-12-14T08:24:43.895Z,146.25
2022-12-14T08:25:44.883Z,146.25
2022-12-14T08:26:49.142Z,180.00
2022-12-14T08:27:44.866Z,253.12
2022-12-14T08:28:43.851Z,281.25
2022-12-14T08:29:43.841Z,326.25
2022-12-14T08:30:43.851Z,315.00
2022-12-14T08:31:43.881Z,219.38
2022-12-14T08:32:43.812Z,320.62
2022-12-14T08:33:43.804Z,427.50
2022-12-14T08:34:43.791Z,472.50
2022-12-14T08:35:43.785Z,365.62
2022-12-14T08:36:43.761Z,466.88
2022-12-14T08:37:47.490Z,556.88
2022-12-14T08:38:43.741Z,421.88
2022-12-14T08:39:43.739Z,337.50
2022-12-14T08:40:45.357Z,371.25
2022-12-14T08:41:43.741Z,427.50
2022-12-14T08:42:43.705Z,455.62
2022-12-14T08:43:43.692Z,416.25
2022-12-14T08:44:43.686Z,410.62
2022-12-14T08:45:43.675Z,405.00
2022-12-14T08:46:43.857Z,393.75
2022-12-14T08:47:43.665Z,371.25
2022-12-14T08:48:43.642Z,348.75
2022-12-14T08:49:43.644Z,320.62
2022-12-14T08:50:43.614Z,303.75
2022-12-14T08:51:43.615Z,286.88
2022-12-14T08:52:43.621Z,275.62
2022-12-14T08:53:43.600Z,275.62
2022-12-14T08:54:43.571Z,270.00
2022-12-14T08:55:43.704Z,247.50
2022-12-14T08:56:43.552Z,258.75
2022-12-14T08:57:43.537Z,241.88
2022-12-14T08:58:43.556Z,230.62
2022-12-14T09:00:04.461Z,376.88
2022-12-14T09:00:44.552Z,438.75
2022-12-14T09:01:43.773Z,348.75
2022-12-14T09:02:43.625Z,309.38
2022-12-14T09:03:43.500Z,326.25
2022-12-14T09:04:43.473Z,298.12
2022-12-14T09:05:43.452Z,286.88
2022-12-14T09:06:43.445Z,174.38
2022-12-14T09:07:43.437Z,157.50
2022-12-14T09:08:43.427Z,146.25
2022-12-14T09:09:43.432Z,151.88
2022-12-14T09:10:43.410Z,163.12
2022-12-14T09:11:43.421Z,112.50
2022-12-14T09:12:43.391Z,135.00
2022-12-14T09:13:43.376Z,90.00
2022-12-14T09:14:43.354Z,95.62
2022-12-14T09:15:43.343Z,140.62
2022-12-14T09:16:43.394Z,146.25
2022-12-14T09:17:43.378Z,123.75
2022-12-14T09:18:43.355Z,151.88
2022-12-14T09:19:43.305Z,135.00
2022-12-14T09:20:43.328Z,106.88
2022-12-14T09:21:43.313Z,106.88
2022-12-14T09:22:43.278Z,146.25
2022-12-14T09:23:43.273Z,208.12
2022-12-14T09:24:43.248Z,213.75
2022-12-14T09:25:43.253Z,168.75
2022-12-14T09:26:43.228Z,118.12
2022-12-14T09:27:43.224Z,95.62
2022-12-14T09:28:43.208Z,101.25
2022-12-14T09:29:52.390Z,157.50
2022-12-14T09:30:43.231Z,191.25
2022-12-14T09:31:43.213Z,236.25
2022-12-14T09:32:43.231Z,275.62
2022-12-14T09:33:44.161Z,241.88
2022-12-14T09:34:45.347Z,348.75
2022-12-14T09:35:43.140Z,472.50
2022-12-14T09:36:43.140Z,337.50
2022-12-14T09:37:44.464Z,213.75
2022-12-14T09:38:48.674Z,320.62
2022-12-14T09:39:44.111Z,286.88
2022-12-14T09:40:43.080Z,298.12
2022-12-14T09:41:43.070Z,315.00
2022-12-14T09:42:43.069Z,360.00
2022-12-14T09:43:44.073Z,405.00
2022-12-14T09:44:43.047Z,556.88
2022-12-14T09:45:43.071Z,596.25
2022-12-14T09:46:43.029Z,405.00
2022-12-14T09:47:43.024Z,298.12
2022-12-14T09:48:43.024Z,230.62
2022-12-14T09:49:42.992Z,168.75
2022-12-14T09:50:42.981Z,157.50
2022-12-14T09:51:42.978Z,157.50
2022-12-14T09:52:42.953Z,163.12
2022-12-14T09:53:42.969Z,146.25
2022-12-14T09:54:42.926Z,123.75
2022-12-14T09:55:42.937Z,118.12
2022-12-14T09:56:42.914Z,106.88
2022-12-14T09:57:42.898Z,101.25
2022-12-14T09:58:42.905Z,95.62
2022-12-14T09:59:42.884Z,106.88
2022-12-14T10:00:44.804Z,101.25
2022-12-14T10:01:55.485Z,101.25
2022-12-14T10:02:44.095Z,101.25
2022-12-14T10:03:43.055Z,101.25
2022-12-14T10:04:47.796Z,106.88
2022-12-14T10:05:43.818Z,118.12
2022-12-14T10:06:42.804Z,135.00
2022-12-14T10:07:42.792Z,140.62
2022-12-14T10:08:42.793Z,129.38
2022-12-14T10:09:42.783Z,135.00
2022-12-14T10:10:42.767Z,123.75
2022-12-14T10:11:42.762Z,118.12
2022-12-14T10:12:42.745Z,112.50
2022-12-14T10:13:42.738Z,123.75
2022-12-14T10:14:44.444Z,123.75
2022-12-14T10:15:42.763Z,118.12
2022-12-14T10:16:45.890Z,118.12
2022-12-14T10:17:43.681Z,112.50
2022-12-14T10:19:00.141Z,118.12
2022-12-14T10:19:43.671Z,123.75
2022-12-14T10:20:42.676Z,123.75
2022-12-14T10:21:42.660Z,123.75
2022-12-14T10:22:42.652Z,129.38
2022-12-14T10:23:42.661Z,129.38
2022-12-14T10:24:42.615Z,129.38
2022-12-14T10:25:42.643Z,135.00
2022-12-14T10:26:42.586Z,123.75
2022-12-14T10:28:16.513Z,129.38
2022-12-14T10:28:43.574Z,112.50
2022-12-14T10:29:42.581Z,101.25
2022-12-14T10:30:42.570Z,95.62
2022-12-14T10:31:42.601Z,106.88
2022-12-14T10:32:42.530Z,101.25
2022-12-14T10:33:42.553Z,101.25
2022-12-14T10:34:42.522Z,106.88
2022-12-14T10:35:42.521Z,112.50
2022-12-14T10:36:42.481Z,118.12
2022-12-14T10:37:42.490Z,106.88
2022-12-14T10:38:42.460Z,101.25
2022-12-14T10:39:42.459Z,95.62
2022-12-14T10:40:43.451Z,95.62
2022-12-14T10:41:43.441Z,101.25
2022-12-14T10:42:42.483Z,101.25
2022-12-14T10:43:43.422Z,101.25
2022-12-14T10:44:42.406Z,95.62
2022-12-14T10:45:43.559Z,95.62
2022-12-14T10:46:42.551Z,84.38
2022-12-14T10:47:42.433Z,78.75
2022-12-14T10:48:42.395Z,78.75
2022-12-14T10:49:42.376Z,78.75
2022-12-14T10:50:42.352Z,78.75
2022-12-14T10:51:42.351Z,78.75
2022-12-14T10:52:42.324Z,84.38
2022-12-14T10:53:42.310Z,84.38
2022-12-14T10:54:42.309Z,84.38
2022-12-14T10:55:42.283Z,84.38
2022-12-14T10:56:42.390Z,84.38
2022-12-14T10:57:42.281Z,84.38
2022-12-14T10:58:42.261Z,84.38
2022-12-14T10:59:50.777Z,73.12
2022-12-14T11:00:43.258Z,67.50
2022-12-14T11:01:42.373Z,67.50
2022-12-14T11:02:42.490Z,61.88
2022-12-14T11:03:42.411Z,61.88
2022-12-14T11:04:42.213Z,61.88
2022-12-14T11:05:42.181Z,61.88
2022-12-14T11:06:42.206Z,67.50
2022-12-14T11:07:42.255Z,67.50
2022-12-14T11:08:42.227Z,67.50
2022-12-14T11:09:42.194Z,73.12
2022-12-14T11:10:42.145Z,84.38
2022-12-14T11:11:42.202Z,90.00
2022-12-14T11:12:42.856Z,101.25
2022-12-14T11:13:42.142Z,106.88
2022-12-14T11:14:42.123Z,78.75
2022-12-14T11:15:42.122Z,90.00
2022-12-14T11:16:42.277Z,123.75
2022-12-14T11:17:42.262Z,112.50
2022-12-14T11:18:42.059Z,106.88
2022-12-14T11:19:42.043Z,106.88
2022-12-14T11:20:42.044Z,118.12
2022-12-14T11:21:42.020Z,112.50
2022-12-14T11:22:42.005Z,84.38
2022-12-14T11:23:42.022Z,101.25
2022-12-14T11:24:41.985Z,135.00
2022-12-14T11:25:41.981Z,118.12
2022-12-14T11:26:41.966Z,101.25
2022-12-14T11:27:41.957Z,90.00
2022-12-14T11:28:42.309Z,84.38
2022-12-14T11:29:41.948Z,84.38
2022-12-14T11:30:41.985Z,101.25
2022-12-14T11:31:41.930Z,112.50
2022-12-14T11:32:41.900Z,118.12
2022-12-14T11:33:41.935Z,123.75
2022-12-14T11:34:41.914Z,118.12
2022-12-14T11:35:41.872Z,106.88
2022-12-14T11:36:41.871Z,106.88
2022-12-14T11:37:41.897Z,101.25
2022-12-14T11:38:41.841Z,101.25
2022-12-14T11:39:41.851Z,84.38
2022-12-14T11:40:41.867Z,78.75
2022-12-14T11:41:41.848Z,73.12
2022-12-14T11:42:41.833Z,73.12
2022-12-14T11:43:41.795Z,67.50
2022-12-14T11:44:41.802Z,61.88
2022-12-14T11:45:41.850Z,61.88
2022-12-14T11:46:44.658Z,61.88
2022-12-14T11:47:41.771Z,67.50
2022-12-14T11:48:41.747Z,67.50
2022-12-14T11:49:41.740Z,73.12
2022-12-14T11:50:41.719Z,78.75
2022-12-14T11:51:41.728Z,78.75
2022-12-14T11:52:41.718Z,78.75
2022-12-14T11:53:41.707Z,78.75
2022-12-14T11:54:41.676Z,78.75
2022-12-14T11:55:41.664Z,84.38
2022-12-14T11:56:41.667Z,90.00
2022-12-14T11:57:41.641Z,90.00
2022-12-14T11:58:41.704Z,95.62
2022-12-14T11:59:41.661Z,78.75
2022-12-14T12:00:46.826Z,78.75
2022-12-14T12:01:42.676Z,67.50
2022-12-14T12:02:41.665Z,67.50
2022-12-14T12:03:41.674Z,67.50
2022-12-14T12:04:41.587Z,73.12
2022-12-14T12:05:41.563Z,78.75
2022-12-14T12:06:41.568Z,78.75
2022-12-14T12:07:41.563Z,101.25
2022-12-14T12:08:41.524Z,101.25
2022-12-14T12:09:41.543Z,95.62
2022-12-14T12:10:41.525Z,95.62
2022-12-14T12:11:41.483Z,78.75
2022-12-14T12:12:41.484Z,73.12
2022-12-14T12:13:41.481Z,84.38
2022-12-14T12:14:41.454Z,84.38
2022-12-14T12:15:41.602Z,78.75
2022-12-14T12:16:41.460Z,73.12
2022-12-14T12:17:41.466Z,67.50
2022-12-14T12:18:46.144Z,73.12
2022-12-14T12:19:41.424Z,78.75
2022-12-14T12:20:41.406Z,73.12
2022-12-14T12:21:41.420Z,67.50
2022-12-14T12:22:41.378Z,67.50
2022-12-14T12:23:41.370Z,67.50
2022-12-14T12:25:01.149Z,73.12
2022-12-14T12:25:42.341Z,78.75
2022-12-14T12:26:41.329Z,73.12
2022-12-14T12:27:41.337Z,73.12
2022-12-14T12:28:41.324Z,73.12
2022-12-14T12:29:41.304Z,73.12
2022-12-14T12:30:41.342Z,84.38
2022-12-14T12:31:41.335Z,61.88
2022-12-14T12:32:41.272Z,50.62
2022-12-14T12:33:41.271Z,50.62
2022-12-14T12:34:41.243Z,56.25
2022-12-14T12:35:41.240Z,61.88
2022-12-14T12:36:56.864Z,56.25
2022-12-14T12:37:42.225Z,45.00
2022-12-14T12:38:41.209Z,45.00
2022-12-14T12:39:41.198Z,39.38
2022-12-14T12:40:41.203Z,39.38
2022-12-14T12:41:41.264Z,33.75
2022-12-14T12:42:41.164Z,28.12
2022-12-14T12:43:41.164Z,28.12
2022-12-14T12:44:41.154Z,28.12
2022-12-14T12:45:41.260Z,28.12
2022-12-14T12:47:06.883Z,28.12
2022-12-14T12:47:47.569Z,28.12
2022-12-14T12:48:42.101Z,28.12
2022-12-14T12:49:41.085Z,28.12
2022-12-14T12:50:41.132Z,28.12
2022-12-14T12:51:41.079Z,28.12
2022-12-14T12:52:41.069Z,28.12
2022-12-14T12:53:41.090Z,28.12
2022-12-14T12:54:41.080Z,33.75
2022-12-14T12:55:41.376Z,50.62
2022-12-14T12:56:41.501Z,45.00
2022-12-14T12:57:41.025Z,56.25
2022-12-14T12:58:41.161Z,61.88
2022-12-14T12:59:41.967Z,67.50
2022-12-14T13:00:41.003Z,73.12
2022-12-14T13:01:41.204Z,73.12